createdAt,value
2022-09-28T00:01:07.973Z,8.65
2022-09-28T00:04:09.926Z,7.68
2022-09-28T00:07:11.882Z,11.17
2022-09-28T00:10:13.861Z,10.05
2022-09-28T00:13:15.838Z,7.07
2022-09-28T00:16:19.701Z,7.05
2022-09-28T00:19:21.714Z,9.53
2022-09-28T00:22:23.670Z,7.15
2022-09-28T00:25:25.705Z,7.28
2022-09-28T00:28:27.661Z,4.80
2022-09-28T00:31:32.744Z,4.73
2022-09-28T00:34:40.734Z,5.15
2022-09-28T00:37:43.208Z,6.25
2022-09-28T00:40:45.399Z,6.25
2022-09-28T00:43:47.438Z,5.10
2022-09-28T00:47:00.800Z,4.47
2022-09-28T00:50:11.748Z,5.38
2022-09-28T00:53:18.123Z,5.43
2022-09-28T00:56:21.708Z,3.40
2022-09-28T00:59:24.845Z,5.28
2022-09-28T01:02:27.071Z,5.65
2022-09-28T01:05:29.554Z,4.00
2022-09-28T01:08:32.862Z,5.55
2022-09-28T01:11:38.726Z,4.68
2022-09-28T01:14:43.410Z,5.55
2022-09-28T01:17:54.841Z,5.00
2022-09-28T01:21:02.949Z,5.78
2022-09-28T01:24:09.736Z,4.90
2022-09-28T01:27:29.921Z,3.65
2022-09-28T01:30:36.048Z,5.45
2022-09-28T01:33:55.840Z,3.15
2022-09-28T01:37:01.041Z,4.13
2022-09-28T01:40:05.062Z,4.00
2022-09-28T01:43:09.727Z,4.35
2022-09-28T01:46:12.960Z,5.00
2022-09-28T01:49:18.501Z,6.03
2022-09-28T01:52:24.603Z,4.07
2022-09-28T01:55:34.911Z,3.30
2022-09-28T01:58:40.982Z,3.38
2022-09-28T02:01:43.188Z,4.63
2022-09-28T02:04:48.514Z,2.55
2022-09-28T02:07:54.607Z,2.83
2022-09-28T02:11:16.824Z,2.85
2022-09-28T02:14:19.913Z,3.90
2022-09-28T02:17:23.257Z,2.35
2022-09-28T02:20:26.496Z,2.33
2022-09-28T02:23:29.455Z,2.20
2022-09-28T02:26:35.122Z,8.98
2022-09-28T02:29:37.201Z,2.60
2022-09-28T02:32:41.440Z,3.33
2022-09-28T02:35:43.949Z,3.70
2022-09-28T02:38:46.157Z,2.85
2022-09-28T02:42:06.830Z,3.20
2022-09-28T02:45:29.129Z,2.60
2022-09-28T02:48:44.086Z,3.33
2022-09-28T02:51:50.754Z,1.63
2022-09-28T02:54:58.886Z,2.58
2022-09-28T02:58:07.320Z,3.97
2022-09-28T03:01:13.146Z,2.13
2022-09-28T03:04:24.074Z,4.78
2022-09-28T03:07:36.942Z,2.27
2022-09-28T03:10:41.814Z,3.20
2022-09-28T03:13:43.911Z,2.40
2022-09-28T03:16:46.529Z,2.70
2022-09-28T03:19:48.665Z,2.97
2022-09-28T03:23:06.431Z,7.47
2022-09-28T03:26:16.840Z,3.50
2022-09-28T03:29:20.555Z,4.40
2022-09-28T03:32:27.571Z,4.30
2022-09-28T03:35:29.853Z,3.17
2022-09-28T03:38:31.847Z,3.13
2022-09-28T03:41:34.024Z,3.13
2022-09-28T03:44:36.210Z,3.97
2022-09-28T03:47:38.254Z,2.90
2022-09-28T03:50:40.213Z,4.67
2022-09-28T03:53:44.826Z,3.78
2022-09-28T03:56:46.970Z,9.43
2022-09-28T03:59:48.991Z,7.10
2022-09-28T04:02:51.454Z,6.37
2022-09-28T04:05:53.463Z,6.60
2022-09-28T04:08:55.494Z,3.90
2022-09-28T04:12:03.693Z,4.50
2022-09-28T04:15:07.702Z,4.68
2022-09-28T04:18:10.833Z,10.38
2022-09-28T04:21:29.498Z,6.97
2022-09-28T04:24:38.315Z,4.93
2022-09-28T04:27:59.750Z,5.47
2022-09-28T04:31:01.781Z,7.57
2022-09-28T04:34:03.803Z,6.23
2022-09-28T04:37:06.462Z,3.35
2022-09-28T04:40:08.770Z,3.03
2022-09-28T04:43:10.801Z,2.75
2022-09-28T04:46:12.961Z,4.73
2022-09-28T04:49:22.011Z,2.92
2022-09-28T04:52:32.829Z,4.85
2022-09-28T04:55:34.776Z,2.97
2022-09-28T04:58:36.929Z,2.30
2022-09-28T05:01:39.676Z,2.08
2022-09-28T05:05:14.117Z,6.55
2022-09-28T05:08:36.298Z,3.38
2022-09-28T05:11:38.347Z,7.28
2022-09-28T05:14:46.057Z,4.20
2022-09-28T05:17:48.261Z,8.60
2022-09-28T05:21:04.727Z,4.07
2022-09-28T05:24:07.838Z,4.18
2022-09-28T05:27:12.568Z,5.72
2022-09-28T05:30:15.140Z,7.93
2022-09-28T05:33:40.708Z,7.60
2022-09-28T05:36:47.371Z,7.38
2022-09-28T05:39:49.529Z,5.90
2022-09-28T05:42:51.663Z,7.50
2022-09-28T05:45:55.874Z,6.80
2022-09-28T05:49:00.509Z,7.93
2022-09-28T05:52:03.872Z,6.60
2022-09-28T05:55:09.135Z,5.03
2022-09-28T05:58:11.478Z,5.88
2022-09-28T06:01:14.813Z,4.37
2022-09-28T06:04:17.494Z,5.40
2022-09-28T06:07:23.613Z,7.80
2022-09-28T06:10:26.632Z,5.53
2022-09-28T06:13:32.637Z,4.17
2022-09-28T06:16:35.182Z,6.32
2022-09-28T06:19:37.450Z,4.13
2022-09-28T06:23:02.452Z,3.53
2022-09-28T06:26:06.543Z,3.97
2022-09-28T06:29:09.179Z,3.70
2022-09-28T06:32:14.034Z,4.38
2022-09-28T06:35:18.222Z,6.10
2022-09-28T06:38:20.334Z,4.00
2022-09-28T06:41:24.339Z,5.32
2022-09-28T06:44:26.461Z,3.75
2022-09-28T06:48:04.332Z,6.93
2022-09-28T06:51:11.775Z,8.55
2022-09-28T06:54:33.278Z,6.55
2022-09-28T06:57:38.986Z,3.70
2022-09-28T07:00:41.673Z,8.90
2022-09-28T07:03:43.685Z,5.17
2022-09-28T07:07:04.109Z,2.60
2022-09-28T07:10:35.594Z,5.15
2022-09-28T07:13:57.895Z,3.17
2022-09-28T07:17:13.143Z,3.63
2022-09-28T07:20:19.676Z,5.80
2022-09-28T07:23:24.266Z,3.75
2022-09-28T07:27:05.679Z,2.92
2022-09-28T07:30:11.934Z,7.50
2022-09-28T07:33:33.532Z,4.00
2022-09-28T07:36:57.473Z,4.68
2022-09-28T07:40:18.051Z,2.63
2022-09-28T07:43:21.211Z,2.00
2022-09-28T07:46:26.158Z,4.20
2022-09-28T07:49:36.517Z,6.78
2022-09-28T07:53:04.271Z,3.13
2022-09-28T07:56:18.340Z,2.15
2022-09-28T07:59:43.820Z,2.10
2022-09-28T08:03:24.013Z,3.13
2022-09-28T08:06:27.553Z,1.98
2022-09-28T08:09:30.037Z,3.70
2022-09-28T08:12:55.171Z,2.65
2022-09-28T08:16:27.537Z,2.65
2022-09-28T08:20:14.233Z,2.60
2022-09-28T08:23:17.440Z,3.85
2022-09-28T08:26:20.178Z,4.93
2022-09-28T08:29:22.409Z,3.00
2022-09-28T08:32:24.845Z,2.30
2022-09-28T08:35:47.403Z,2.03
2022-09-28T08:38:57.566Z,3.42
2022-09-28T08:42:29.004Z,2.72
2022-09-28T08:45:40.874Z,3.38
2022-09-28T08:49:25.982Z,9.10
2022-09-28T08:52:42.045Z,1.93
2022-09-28T08:56:04.115Z,3.05
2022-09-28T08:59:15.464Z,1.58
2022-09-28T09:02:21.442Z,1.63
2022-09-28T09:05:41.534Z,1.98
2022-09-28T09:08:43.857Z,2.47
2022-09-28T09:12:09.320Z,1.73
2022-09-28T09:19:44.000Z,2.10
2022-09-28T09:23:17.266Z,2.28
2022-09-28T09:26:24.770Z,2.17
2022-09-28T09:29:54.447Z,2.30
2022-09-28T09:33:04.912Z,3.03
2022-09-28T09:36:20.696Z,3.10
2022-09-28T09:39:57.343Z,1.52
2022-09-28T09:43:31.778Z,1.77
2022-09-28T09:47:06.269Z,1.50
2022-09-28T09:50:43.562Z,1.45
2022-09-28T09:53:56.269Z,2.67
2022-09-28T09:57:03.448Z,1.70
2022-09-28T10:00:37.996Z,3.17
2022-09-28T10:03:51.126Z,2.05
2022-09-28T10:06:57.798Z,4.00
2022-09-28T10:10:02.279Z,5.03
2022-09-28T10:13:15.403Z,2.25
2022-09-28T10:16:19.344Z,2.70
2022-09-28T10:19:34.024Z,2.60
2022-09-28T10:22:42.146Z,2.30
2022-09-28T10:25:50.314Z,2.60
2022-09-28T10:28:59.283Z,2.63
2022-09-28T10:32:02.945Z,2.00
2022-09-28T10:35:14.985Z,2.20
2022-09-28T10:38:18.915Z,5.20
2022-09-28T10:41:32.862Z,1.45
2022-09-28T10:44:52.746Z,3.30
2022-09-28T10:48:05.125Z,3.60
2022-09-28T10:51:07.558Z,2.10
2022-09-28T10:54:15.169Z,3.35
2022-09-28T10:57:48.454Z,1.70
2022-09-28T11:00:52.803Z,2.83
2022-09-28T11:04:00.657Z,2.63
2022-09-28T11:07:02.746Z,3.45
2022-09-28T11:10:05.840Z,2.63
2022-09-28T11:13:10.044Z,4.72
2022-09-28T11:16:21.201Z,2.88
2022-09-28T11:19:23.361Z,3.30
2022-09-28T11:22:34.460Z,2.30
2022-09-28T11:25:42.084Z,2.10
2022-09-28T11:28:50.196Z,3.92
2022-09-28T11:32:01.918Z,3.92
2022-09-28T11:35:05.205Z,2.50
2022-09-28T11:38:13.519Z,1.73
2022-09-28T11:41:38.143Z,1.88
2022-09-28T11:44:46.540Z,1.92
2022-09-28T11:47:55.671Z,1.83
2022-09-28T11:51:06.444Z,1.60
2022-09-28T11:54:23.964Z,4.72
2022-09-28T11:57:29.774Z,4.95
2022-09-28T12:00:36.483Z,1.83
2022-09-28T12:03:42.203Z,3.00
2022-09-28T12:06:49.304Z,1.50
2022-09-28T12:10:12.512Z,1.23
2022-09-28T12:13:16.981Z,1.75
2022-09-28T12:17:05.086Z,2.05
2022-09-28T12:20:06.076Z,2.10
2022-09-28T12:23:13.269Z,3.63
2022-09-28T12:26:37.291Z,2.03
2022-09-28T12:29:41.137Z,2.20
2022-09-28T12:33:03.387Z,1.65
2022-09-28T12:36:05.401Z,1.58
2022-09-28T12:39:27.468Z,1.63
2022-09-28T12:42:44.408Z,2.50
2022-09-28T12:46:12.090Z,2.70
2022-09-28T12:52:51.656Z,2.33
2022-09-28T12:56:21.829Z,2.30
2022-09-28T12:59:32.108Z,1.55
2022-09-28T13:02:41.880Z,0.88
2022-09-28T13:05:56.398Z,1.92
2022-09-28T13:09:01.496Z,3.42
2022-09-28T13:12:25.076Z,1.67
2022-09-28T13:15:33.383Z,1.63
2022-09-28T13:18:42.210Z,1.65
2022-09-28T13:21:52.712Z,1.80
2022-09-28T13:24:55.951Z,1.23
2022-09-28T13:28:05.061Z,2.87
2022-09-28T13:31:07.362Z,2.78
2022-09-28T13:34:13.481Z,2.53
2022-09-28T13:37:19.921Z,2.58
2022-09-28T13:40:41.843Z,2.45
2022-09-28T13:43:53.620Z,1.97
2022-09-28T13:47:02.221Z,1.70
2022-09-28T13:50:04.281Z,2.40
2022-09-28T13:53:06.196Z,1.73
2022-09-28T13:56:17.594Z,2.38
2022-09-28T13:59:22.440Z,2.03
2022-09-28T14:02:27.496Z,5.15
2022-09-28T14:05:34.446Z,2.28
2022-09-28T14:08:43.827Z,2.88
2022-09-28T14:11:55.538Z,3.55
2022-09-28T14:14:57.630Z,5.00
2022-09-28T14:17:59.600Z,22.58
2022-09-28T14:21:20.065Z,4.65
2022-09-28T14:24:40.655Z,1.75
2022-09-28T14:27:42.614Z,2.03
2022-09-28T14:30:49.608Z,4.37
2022-09-28T14:33:57.016Z,4.55
2022-09-28T14:37:17.989Z,2.28
2022-09-28T14:40:48.699Z,1.38
2022-09-28T14:43:59.163Z,2.63
2022-09-28T14:47:24.858Z,1.80
2022-09-28T14:50:27.657Z,1.55
2022-09-28T14:53:29.628Z,4.07
2022-09-28T14:56:33.477Z,1.60
2022-09-28T14:59:43.545Z,3.22
2022-09-28T15:02:48.556Z,2.40
2022-09-28T15:05:50.692Z,1.73
2022-09-28T15:08:52.978Z,3.53
2022-09-28T15:12:27.732Z,3.15
2022-09-28T15:15:31.805Z,0.93
2022-09-28T15:19:01.429Z,1.03
2022-09-28T15:22:03.711Z,1.38
2022-09-28T15:25:13.363Z,2.35
2022-09-28T15:28:19.283Z,2.67
2022-09-28T15:31:22.660Z,1.90
2022-09-28T15:34:51.181Z,1.90
2022-09-28T15:37:54.513Z,3.13
2022-09-28T15:40:57.619Z,1.92
2022-09-28T15:44:23.594Z,2.45
2022-09-28T15:47:27.171Z,2.47
2022-09-28T15:50:30.064Z,3.47
2022-09-28T15:53:33.295Z,4.20
2022-09-28T15:56:50.921Z,5.88
2022-09-28T15:59:59.718Z,4.07
2022-09-28T16:03:21.065Z,7.15
2022-09-28T16:06:23.625Z,2.67
2022-09-28T16:09:38.917Z,2.97
2022-09-28T16:12:48.182Z,6.47
2022-09-28T16:16:00.391Z,5.07
2022-09-28T16:19:03.753Z,6.78
2022-09-28T16:22:07.434Z,10.47
2022-09-28T16:25:16.509Z,5.95
2022-09-28T16:28:48.948Z,5.97
2022-09-28T16:31:53.260Z,6.85
2022-09-28T16:35:16.051Z,9.98
2022-09-28T16:38:18.969Z,15.33
2022-09-28T16:41:22.801Z,21.70
2022-09-28T16:44:25.969Z,26.27
2022-09-28T16:47:32.660Z,18.95
2022-09-28T16:50:34.635Z,20.45
2022-09-28T16:53:55.114Z,15.20
2022-09-28T16:56:57.138Z,9.02
2022-09-28T16:59:59.942Z,9.15
2022-09-28T17:03:05.339Z,8.98
2022-09-28T17:06:11.477Z,27.42
2022-09-28T17:09:13.461Z,22.23
2022-09-28T17:12:17.953Z,12.40
2022-09-28T17:15:19.927Z,14.18
2022-09-28T17:18:21.905Z,15.45
2022-09-28T17:21:23.846Z,14.75
2022-09-28T17:24:25.931Z,15.17
2022-09-28T17:27:27.860Z,17.38
2022-09-28T17:30:30.089Z,23.45
2022-09-28T17:33:32.062Z,22.85
2022-09-28T17:36:34.055Z,36.72
2022-09-28T17:39:36.051Z,44.37
2022-09-28T17:42:38.016Z,44.47
2022-09-28T17:45:41.058Z,34.33
2022-09-28T17:48:46.102Z,31.52
2022-09-28T17:51:48.127Z,20.05
2022-09-28T17:54:50.086Z,21.47
2022-09-28T17:57:52.086Z,18.83
2022-09-28T18:00:54.026Z,20.35
2022-09-28T18:03:56.013Z,14.20
2022-09-28T18:06:57.980Z,18.27
2022-09-28T18:10:00.316Z,14.53
2022-09-28T18:13:02.251Z,23.15
2022-09-28T18:16:04.894Z,13.98
2022-09-28T18:19:07.008Z,9.55
2022-09-28T18:22:08.970Z,10.38
2022-09-28T18:25:11.212Z,7.70
2022-09-28T18:28:13.716Z,8.60
2022-09-28T18:31:15.817Z,8.43
2022-09-28T18:34:18.081Z,8.95
2022-09-28T18:37:20.148Z,13.38
2022-09-28T18:40:22.758Z,9.87
2022-09-28T18:43:24.751Z,7.05
2022-09-28T18:46:30.471Z,8.40
2022-09-28T18:49:33.672Z,8.95
2022-09-28T18:52:36.374Z,9.50
2022-09-28T18:55:42.071Z,7.40
2022-09-28T18:58:44.506Z,10.18
2022-09-28T19:01:46.569Z,6.57
2022-09-28T19:04:48.669Z,7.28
2022-09-28T19:07:51.054Z,7.05
2022-09-28T19:10:53.004Z,6.63
2022-09-28T19:13:55.616Z,23.73
2022-09-28T19:16:57.611Z,8.23
2022-09-28T19:19:59.608Z,5.45
2022-09-28T19:23:02.242Z,5.68
2022-09-28T19:26:06.256Z,4.63
2022-09-28T19:29:09.531Z,3.78
2022-09-28T19:32:12.696Z,5.55
2022-09-28T19:35:14.779Z,3.20
2022-09-28T19:38:16.697Z,5.22
2022-09-28T19:41:39.416Z,3.13
2022-09-28T19:44:46.446Z,4.78
2022-09-28T19:47:49.128Z,4.28
2022-09-28T19:50:58.696Z,3.17
2022-09-28T19:54:05.049Z,3.20
2022-09-28T19:57:10.500Z,4.93
2022-09-28T20:00:12.545Z,9.27
2022-09-28T20:03:14.600Z,4.70
2022-09-28T20:06:17.421Z,5.40
2022-09-28T20:09:19.758Z,4.68
2022-09-28T20:12:22.388Z,6.40
2022-09-28T20:15:24.469Z,4.43
2022-09-28T20:18:27.502Z,8.15
2022-09-28T20:21:29.902Z,10.35
2022-09-28T20:24:32.317Z,6.18
2022-09-28T20:27:34.223Z,5.20
2022-09-28T20:30:37.366Z,9.15
2022-09-28T20:33:39.468Z,8.48
2022-09-28T20:36:43.143Z,4.10
2022-09-28T20:39:45.331Z,6.38
2022-09-28T20:42:47.245Z,6.60
2022-09-28T20:45:50.607Z,3.75
2022-09-28T20:48:55.039Z,7.93
2022-09-28T20:51:57.054Z,9.13
2022-09-28T20:54:59.000Z,5.95
2022-09-28T20:58:04.431Z,6.60
2022-09-28T21:01:09.404Z,8.48
2022-09-28T21:04:11.501Z,10.60
2022-09-28T21:07:13.440Z,7.10
2022-09-28T21:10:16.725Z,10.65
2022-09-28T21:13:18.688Z,11.43
2022-09-28T21:16:21.120Z,9.63
2022-09-28T21:19:24.306Z,10.30
2022-09-28T21:22:28.483Z,4.88
2022-09-28T21:25:31.266Z,3.75
2022-09-28T21:28:33.640Z,5.20
2022-09-28T21:31:45.722Z,6.03
2022-09-28T21:34:47.753Z,5.47
2022-09-28T21:37:49.735Z,5.90
2022-09-28T21:40:54.753Z,5.63
2022-09-28T21:43:56.819Z,6.40
2022-09-28T21:46:58.774Z,6.10
2022-09-28T21:50:00.709Z,4.80
2022-09-28T21:53:03.236Z,5.90
2022-09-28T21:56:06.462Z,8.75
2022-09-28T21:59:08.465Z,4.87
2022-09-28T22:02:10.560Z,5.60
2022-09-28T22:05:13.192Z,5.05
2022-09-28T22:08:15.132Z,5.03
2022-09-28T22:11:21.610Z,6.03
2022-09-28T22:14:23.560Z,4.10
2022-09-28T22:17:25.499Z,5.32
2022-09-28T22:20:27.470Z,4.15
2022-09-28T22:23:30.330Z,3.97
2022-09-28T22:26:33.025Z,4.30
2022-09-28T22:29:35.951Z,4.20
2022-09-28T22:32:37.974Z,6.97
2022-09-28T22:35:39.919Z,5.95
2022-09-28T22:38:42.054Z,5.75
2022-09-28T22:41:44.036Z,5.50
2022-09-28T22:44:46.000Z,4.90
2022-09-28T22:47:47.979Z,5.53
2022-09-28T22:50:50.871Z,6.45
2022-09-28T22:53:52.848Z,8.02
2022-09-28T22:56:54.807Z,5.78
2022-09-28T22:59:56.729Z,8.10
2022-09-28T23:02:58.847Z,7.65
2022-09-28T23:06:00.788Z,7.38
2022-09-28T23:09:02.886Z,6.32
2022-09-28T23:12:04.822Z,6.38
2022-09-28T23:15:07.140Z,7.77
2022-09-28T23:18:09.300Z,6.25
2022-09-28T23:21:12.992Z,5.80
2022-09-28T23:24:14.923Z,5.10
2022-09-28T23:27:16.942Z,6.88
2022-09-28T23:30:20.629Z,5.37
2022-09-28T23:33:22.729Z,7.20
2022-09-28T23:36:25.335Z,7.18
2022-09-28T23:39:27.327Z,6.75
2022-09-28T23:42:29.296Z,5.80
2022-09-28T23:45:31.226Z,8.70
2022-09-28T23:48:33.781Z,5.05
2022-09-28T23:51:35.720Z,7.72
2022-09-28T23:54:37.721Z,8.75
2022-09-28T23:57:39.992Z,7.80
